createdAt,value
2023-01-30T00:01:19.908Z,98789.96
2023-01-30T00:03:50.282Z,98796.41
2023-01-30T00:06:20.988Z,98787.92
2023-01-30T00:08:51.553Z,98800.71
2023-01-30T00:11:22.780Z,98806.65
2023-01-30T00:13:53.611Z,98797.64
2023-01-30T00:16:24.036Z,98782.07
2023-01-30T00:18:54.506Z,98772.42
2023-01-30T00:21:24.936Z,98771.40
2023-01-30T00:23:55.233Z,98766.80
2023-01-30T00:26:25.605Z,98751.49
2023-01-30T00:28:55.969Z,98736.91
2023-01-30T00:31:26.513Z,98692.63
2023-01-30T00:33:56.908Z,98690.10
2023-01-30T00:36:27.279Z,98702.32
2023-01-30T00:38:59.321Z,98707.40
2023-01-30T00:41:49.615Z,98716.55
2023-01-30T00:44:37.301Z,98704.30
2023-01-30T00:47:08.976Z,98702.23
2023-01-30T00:49:39.679Z,98702.69
2023-01-30T00:52:10.064Z,98704.04
2023-01-30T00:54:40.430Z,98694.75
2023-01-30T00:57:10.755Z,98700.42
2023-01-30T00:59:41.084Z,98693.31
2023-01-30T01:02:11.510Z,98684.09
2023-01-30T01:04:44.156Z,98683.89
2023-01-30T01:07:17.871Z,98685.57
2023-01-30T01:09:48.259Z,98698.00
2023-01-30T01:12:18.712Z,98680.70
2023-01-30T01:14:49.242Z,98686.90
2023-01-30T01:17:19.848Z,98672.52
2023-01-30T01:19:50.270Z,98668.30
2023-01-30T01:22:20.592Z,98656.59
2023-01-30T01:24:51.007Z,98635.48
2023-01-30T01:27:21.394Z,98640.80
2023-01-30T01:29:52.716Z,98655.68
2023-01-30T01:32:24.135Z,98662.04
2023-01-30T01:34:54.673Z,98658.98
2023-01-30T01:37:25.252Z,98652.56
2023-01-30T01:40:13.383Z,98650.38
2023-01-30T01:42:44.001Z,98648.69
2023-01-30T01:45:20.671Z,98647.96
2023-01-30T01:48:00.169Z,98641.33
2023-01-30T01:50:33.934Z,98631.56
2023-01-30T01:53:04.449Z,98623.50
2023-01-30T01:55:35.063Z,98618.93
2023-01-30T01:58:08.269Z,98618.09
2023-01-30T02:00:38.732Z,98619.10
2023-01-30T02:03:13.690Z,98615.02
2023-01-30T02:05:47.521Z,98611.56
2023-01-30T02:08:20.326Z,98596.70
2023-01-30T02:10:58.160Z,98585.09
2023-01-30T02:13:28.975Z,98596.39
2023-01-30T02:16:00.083Z,98600.35
2023-01-30T02:18:31.662Z,98601.02
2023-01-30T02:21:50.801Z,98601.02
2023-01-30T02:24:38.014Z,98587.79
2023-01-30T02:27:28.516Z,98579.50
2023-01-30T02:30:26.796Z,98572.05
2023-01-30T02:33:05.461Z,98568.12
2023-01-30T02:35:43.611Z,98572.83
2023-01-30T02:38:31.662Z,98571.88
2023-01-30T02:41:08.631Z,98567.17
2023-01-30T02:43:47.177Z,98567.87
2023-01-30T02:46:21.301Z,98569.53
2023-01-30T02:48:57.783Z,98568.63
2023-01-30T02:51:32.698Z,98569.33
2023-01-30T02:54:04.963Z,98571.24
2023-01-30T02:56:47.679Z,98578.62
2023-01-30T02:59:23.646Z,98575.70
2023-01-30T03:02:25.737Z,98578.42
2023-01-30T03:05:09.698Z,98578.66
2023-01-30T03:07:48.689Z,98574.67
2023-01-30T03:10:26.674Z,98582.52
2023-01-30T03:13:07.829Z,98574.35
2023-01-30T03:15:44.746Z,98559.31
2023-01-30T03:18:17.063Z,98561.29
2023-01-30T03:20:50.988Z,98553.88
2023-01-30T03:23:23.239Z,98558.67
2023-01-30T03:25:55.734Z,98556.13
2023-01-30T03:28:27.082Z,98545.20
2023-01-30T03:37:26.388Z,98534.38
2023-01-30T03:39:57.585Z,98522.39
2023-01-30T03:42:29.127Z,98521.17
2023-01-30T03:44:59.565Z,98524.58
2023-01-30T03:47:29.916Z,98532.05
2023-01-30T03:50:00.317Z,98541.65
2023-01-30T03:52:30.924Z,98535.56
2023-01-30T03:55:01.398Z,98546.21
2023-01-30T03:57:32.443Z,98542.50
2023-01-30T04:00:04.134Z,98531.41
2023-01-30T04:02:35.624Z,98524.74
2023-01-30T04:05:08.045Z,98526.60
2023-01-30T04:07:38.772Z,98526.98
2023-01-30T04:10:11.341Z,98529.42
2023-01-30T04:12:40.817Z,98516.72
2023-01-30T04:15:12.604Z,98510.45
2023-01-30T04:17:51.496Z,98508.35
2023-01-30T04:20:38.618Z,98503.00
2023-01-30T04:23:09.036Z,98507.06
2023-01-30T04:25:39.346Z,98503.14
2023-01-30T04:28:11.017Z,98496.90
2023-01-30T04:30:41.909Z,98488.16
2023-01-30T04:33:30.867Z,98490.17
2023-01-30T04:36:02.398Z,98481.02
2023-01-30T04:38:33.561Z,98470.34
2023-01-30T04:41:04.140Z,98460.42
2023-01-30T04:43:36.035Z,98461.15
2023-01-30T04:46:26.381Z,98445.46
2023-01-30T04:48:56.789Z,98447.80
2023-01-30T04:51:27.174Z,98448.48
2023-01-30T04:53:57.521Z,98449.52
2023-01-30T04:56:28.028Z,98453.27
2023-01-30T04:58:58.417Z,98453.59
2023-01-30T05:01:34.885Z,98450.25
2023-01-30T05:04:05.761Z,98452.35
2023-01-30T05:06:36.757Z,98452.09
2023-01-30T05:09:07.242Z,98445.35
2023-01-30T05:11:38.255Z,98442.96
2023-01-30T05:14:08.570Z,98439.19
2023-01-30T05:16:38.862Z,98440.26
2023-01-30T05:19:10.035Z,98436.90
2023-01-30T05:21:40.516Z,98435.48
2023-01-30T05:24:11.127Z,98435.05
2023-01-30T05:26:41.557Z,98429.29
2023-01-30T05:29:12.981Z,98425.52
2023-01-30T05:31:43.393Z,98426.37
2023-01-30T05:34:15.013Z,98421.73
2023-01-30T05:36:45.777Z,98415.08
2023-01-30T05:39:16.345Z,98404.73
2023-01-30T05:41:47.408Z,98410.73
2023-01-30T05:44:18.057Z,98416.04
2023-01-30T05:46:48.580Z,98410.41
2023-01-30T05:49:19.432Z,98406.84
2023-01-30T05:51:51.514Z,98402.06
2023-01-30T05:54:22.014Z,98396.42
2023-01-30T05:56:52.912Z,98394.55
2023-01-30T05:59:23.463Z,98396.15
2023-01-30T06:01:53.807Z,98396.20
2023-01-30T06:04:24.265Z,98392.27
2023-01-30T06:06:54.558Z,98395.95
2023-01-30T06:09:24.789Z,98401.67
2023-01-30T06:11:55.632Z,98403.19
2023-01-30T06:14:25.933Z,98394.14
2023-01-30T06:16:56.556Z,98394.41
2023-01-30T06:19:26.902Z,98390.77
2023-01-30T06:21:57.239Z,98386.31
2023-01-30T06:24:27.582Z,98384.92
2023-01-30T06:26:57.840Z,98389.58
2023-01-30T06:29:28.196Z,98392.04
2023-01-30T06:32:00.777Z,98394.14
2023-01-30T06:34:31.126Z,98394.66
2023-01-30T06:37:01.422Z,98387.66
2023-01-30T06:39:31.886Z,98378.11
2023-01-30T06:42:02.619Z,98378.32
2023-01-30T06:44:32.882Z,98397.12
2023-01-30T06:47:03.234Z,98406.04
2023-01-30T06:49:33.549Z,98414.10
2023-01-30T06:52:03.883Z,98416.70
2023-01-30T06:54:34.181Z,98424.02
2023-01-30T06:57:04.660Z,98434.79
2023-01-30T06:59:34.961Z,98428.00
2023-01-30T07:02:05.397Z,98434.25
2023-01-30T07:04:35.904Z,98438.52
2023-01-30T07:07:07.157Z,98447.36
2023-01-30T07:09:37.521Z,98433.70
2023-01-30T07:12:08.507Z,98435.54
2023-01-30T07:14:38.784Z,98454.16
2023-01-30T07:17:09.094Z,98466.02
2023-01-30T07:19:39.823Z,98468.80
2023-01-30T07:22:10.110Z,98459.10
2023-01-30T07:24:42.819Z,98431.67
2023-01-30T07:27:14.089Z,98435.36
2023-01-30T07:29:44.369Z,98437.76
2023-01-30T07:32:18.390Z,98433.02
2023-01-30T07:34:49.139Z,98428.45
2023-01-30T07:37:19.467Z,98428.63
2023-01-30T07:39:49.823Z,98438.30
2023-01-30T07:42:20.146Z,98443.38
2023-01-30T07:44:50.504Z,98455.30
2023-01-30T07:47:20.987Z,98445.11
2023-01-30T07:49:51.367Z,98432.86
2023-01-30T07:52:21.641Z,98435.23
2023-01-30T07:54:51.926Z,98437.42
2023-01-30T07:57:22.499Z,98426.25
2023-01-30T07:59:52.886Z,98423.42
2023-01-30T08:02:23.210Z,98420.75
2023-01-30T08:04:53.584Z,98423.15
2023-01-30T08:07:23.954Z,98398.77
2023-01-30T08:09:54.503Z,98391.41
2023-01-30T08:12:24.988Z,98387.86
2023-01-30T08:14:55.407Z,98396.79
2023-01-30T08:17:25.796Z,98393.23
2023-01-30T08:19:56.190Z,98389.34
2023-01-30T08:22:26.646Z,98395.11
2023-01-30T08:24:57.019Z,98396.52
2023-01-30T08:27:27.440Z,98394.35
2023-01-30T08:29:58.015Z,98403.98
2023-01-30T08:32:28.483Z,98406.53
2023-01-30T08:34:58.807Z,98415.15
2023-01-30T08:37:29.226Z,98400.19
2023-01-30T08:39:59.603Z,98400.71
2023-01-30T08:42:30.491Z,98398.73
2023-01-30T08:45:00.796Z,98381.95
2023-01-30T08:47:31.399Z,98379.80
2023-01-30T08:50:01.813Z,98380.55
2023-01-30T08:52:32.436Z,98378.88
2023-01-30T08:55:02.789Z,98376.01
2023-01-30T08:57:33.502Z,98374.81
2023-01-30T09:00:04.901Z,98375.46
2023-01-30T09:02:35.458Z,98364.79
2023-01-30T09:05:06.394Z,98357.69
2023-01-30T09:07:36.823Z,98359.50
2023-01-30T09:10:08.551Z,98358.05
2023-01-30T09:12:39.046Z,98356.08
2023-01-30T09:15:11.280Z,98359.85
2023-01-30T09:17:41.644Z,98346.80
2023-01-30T09:20:13.621Z,98344.34
2023-01-30T09:22:43.918Z,98348.52
2023-01-30T09:25:14.328Z,98351.65
2023-01-30T09:27:45.027Z,98348.61
2023-01-30T09:30:16.564Z,98338.78
2023-01-30T09:32:47.403Z,98340.89
2023-01-30T09:35:17.894Z,98347.30
2023-01-30T09:37:52.275Z,98342.99
2023-01-30T09:40:28.390Z,98347.65
2023-01-30T09:43:08.111Z,98356.72
2023-01-30T09:45:45.890Z,98358.61
2023-01-30T09:48:21.046Z,98354.38
2023-01-30T09:51:07.502Z,98350.33
2023-01-30T09:53:53.712Z,98352.91
2023-01-30T09:56:24.064Z,98347.08
2023-01-30T09:58:57.293Z,98336.30
2023-01-30T10:01:30.390Z,98330.38
2023-01-30T10:04:14.742Z,98319.23
2023-01-30T10:06:53.303Z,98305.54
2023-01-30T10:09:32.359Z,98303.80
2023-01-30T10:12:12.803Z,98299.70
2023-01-30T10:15:02.917Z,98290.39
2023-01-30T10:17:47.072Z,98286.02
2023-01-30T10:20:31.590Z,98300.30
2023-01-30T10:23:16.629Z,98304.70
2023-01-30T10:25:50.578Z,98304.56
2023-01-30T10:28:26.078Z,98311.11
2023-01-30T10:31:03.557Z,98302.92
2023-01-30T10:33:38.338Z,98298.94
2023-01-30T10:36:15.283Z,98287.27
2023-01-30T10:38:51.759Z,98284.02
2023-01-30T10:41:28.810Z,98284.96
2023-01-30T10:44:06.293Z,98288.31
2023-01-30T10:46:55.786Z,98284.72
2023-01-30T10:49:38.264Z,98275.23
2023-01-30T10:52:32.287Z,98285.48
2023-01-30T10:55:12.712Z,98285.81
2023-01-30T10:57:51.627Z,98289.17
2023-01-30T11:00:29.921Z,98284.32
2023-01-30T11:03:13.318Z,98271.45
2023-01-30T11:05:49.408Z,98276.26
2023-01-30T11:08:27.467Z,98271.91
2023-01-30T11:11:01.376Z,98269.31
2023-01-30T11:13:35.771Z,98263.83
2023-01-30T11:16:10.362Z,98267.94
2023-01-30T11:19:18.972Z,98283.77
2023-01-30T11:21:45.417Z,98285.38
2023-01-30T11:24:21.053Z,98293.95
2023-01-30T11:26:54.505Z,98291.36
2023-01-30T11:29:32.025Z,98279.83
2023-01-30T11:37:57.715Z,98295.79
2023-01-30T11:40:31.750Z,98307.86
2023-01-30T11:43:07.237Z,98293.53
2023-01-30T11:45:39.665Z,98291.27
2023-01-30T11:48:31.559Z,98294.01
2023-01-30T11:51:06.826Z,98288.77
2023-01-30T11:53:38.153Z,98275.99
2023-01-30T11:56:15.719Z,98283.50
2023-01-30T11:58:48.585Z,98284.98
2023-01-30T12:01:17.399Z,98283.23
2023-01-30T12:03:50.969Z,98286.70
2023-01-30T12:06:26.460Z,98290.81
2023-01-30T12:08:57.474Z,98298.15
2023-01-30T12:11:30.649Z,98287.79
2023-01-30T12:14:09.753Z,98279.70
2023-01-30T12:16:51.131Z,98274.02
2023-01-30T12:19:31.639Z,98278.60
2023-01-30T12:22:05.837Z,98269.38
2023-01-30T12:24:41.455Z,98271.81
2023-01-30T12:27:16.651Z,98268.15
2023-01-30T12:29:55.922Z,98264.35
2023-01-30T12:32:29.660Z,98269.41
2023-01-30T12:35:01.488Z,98272.33
2023-01-30T12:37:46.414Z,98279.69
2023-01-30T12:40:26.209Z,98282.66
2023-01-30T12:43:07.739Z,98279.83
2023-01-30T12:45:42.182Z,98272.31
2023-01-30T12:48:28.685Z,98275.00
2023-01-30T12:51:06.314Z,98270.91
2023-01-30T12:53:45.392Z,98279.39
2023-01-30T12:56:33.078Z,98283.58
2023-01-30T12:59:09.192Z,98282.65
2023-01-30T13:01:48.577Z,98294.55
2023-01-30T13:04:26.051Z,98296.72
2023-01-30T13:07:03.099Z,98308.80
2023-01-30T13:09:47.134Z,98306.26
2023-01-30T13:12:24.233Z,98310.23
2023-01-30T13:15:01.388Z,98314.70
2023-01-30T13:17:45.688Z,98313.28
2023-01-30T13:20:31.241Z,98308.79
2023-01-30T13:23:06.059Z,98314.40
2023-01-30T13:25:42.339Z,98308.62
2023-01-30T13:28:16.014Z,98317.23
2023-01-30T13:30:49.153Z,98317.25
2023-01-30T13:33:21.042Z,98323.27
2023-01-30T13:35:54.812Z,98334.79
2023-01-30T13:38:27.904Z,98340.30
2023-01-30T13:41:02.795Z,98329.83
2023-01-30T13:43:37.141Z,98340.14
2023-01-30T13:46:11.237Z,98338.09
2023-01-30T13:48:55.428Z,98342.55
2023-01-30T13:51:33.271Z,98349.76
2023-01-30T13:54:07.608Z,98353.03
2023-01-30T13:56:43.164Z,98357.84
2023-01-30T13:59:21.937Z,98362.47
2023-01-30T14:02:19.742Z,98361.09
2023-01-30T14:04:52.238Z,98359.89
2023-01-30T14:07:26.906Z,98354.57
2023-01-30T14:10:12.290Z,98345.97
2023-01-30T14:12:45.252Z,98338.58
2023-01-30T14:15:26.167Z,98354.39
2023-01-30T14:18:07.415Z,98359.55
2023-01-30T14:20:40.589Z,98364.35
2023-01-30T14:23:20.494Z,98362.80
2023-01-30T14:25:53.073Z,98369.52
2023-01-30T14:28:52.698Z,98367.11
2023-01-30T14:31:50.147Z,98370.20
2023-01-30T14:34:41.789Z,98376.90
2023-01-30T14:37:45.923Z,98375.02
2023-01-30T14:40:37.356Z,98390.98
2023-01-30T14:43:36.920Z,98384.95
2023-01-30T14:46:09.080Z,98410.40
2023-01-30T14:48:44.809Z,98412.64
2023-01-30T14:51:23.430Z,98410.77
2023-01-30T14:53:56.883Z,98415.75
2023-01-30T14:56:41.453Z,98417.64
2023-01-30T14:59:20.320Z,98422.61
2023-01-30T15:02:03.529Z,98424.84
2023-01-30T15:04:33.116Z,98425.70
2023-01-30T15:07:10.358Z,98427.95
2023-01-30T15:09:41.897Z,98434.48
2023-01-30T15:12:29.647Z,98433.27
2023-01-30T15:15:07.045Z,98440.31
2023-01-30T15:17:48.508Z,98448.38
2023-01-30T15:20:29.726Z,98454.73
2023-01-30T15:23:15.138Z,98456.27
2023-01-30T15:26:01.924Z,98464.52
2023-01-30T15:28:37.831Z,98465.38
2023-01-30T15:31:12.156Z,98467.77
2023-01-30T15:33:50.723Z,98459.70
2023-01-30T15:36:24.267Z,98464.16
2023-01-30T15:39:01.683Z,98462.61
2023-01-30T15:41:35.360Z,98452.83
2023-01-30T15:44:33.225Z,98462.42
2023-01-30T15:47:14.587Z,98461.54
2023-01-30T15:49:54.305Z,98472.32
2023-01-30T15:52:29.109Z,98475.04
2023-01-30T15:55:02.170Z,98481.87
2023-01-30T15:57:35.886Z,98484.94
2023-01-30T16:00:08.885Z,98496.59
2023-01-30T16:02:45.499Z,98502.38
2023-01-30T16:05:21.195Z,98505.95
2023-01-30T16:07:52.849Z,98510.34
2023-01-30T16:10:24.672Z,98512.38
2023-01-30T16:12:57.359Z,98519.02
2023-01-30T16:15:32.119Z,98521.88
2023-01-30T16:18:06.161Z,98530.41
2023-01-30T16:20:58.912Z,98534.67
2023-01-30T16:23:34.827Z,98541.38
2023-01-30T16:26:06.674Z,98550.11
2023-01-30T16:28:37.284Z,98554.41
2023-01-30T16:31:09.459Z,98559.51
2023-01-30T16:33:40.392Z,98561.03
2023-01-30T16:36:32.982Z,98562.33
2023-01-30T16:39:03.391Z,98564.89
2023-01-30T16:41:35.586Z,98567.95
2023-01-30T16:44:17.829Z,98570.36
2023-01-30T16:46:53.199Z,98571.56
2023-01-30T16:49:25.907Z,98574.16
2023-01-30T16:52:05.488Z,98567.84
2023-01-30T16:54:36.175Z,98563.20
2023-01-30T16:57:06.865Z,98563.13
2023-01-30T16:59:37.875Z,98568.27
2023-01-30T17:02:15.501Z,98569.78
2023-01-30T17:04:45.790Z,98573.38
2023-01-30T17:07:35.250Z,98580.21
2023-01-30T17:10:06.329Z,98579.42
2023-01-30T17:12:49.353Z,98585.98
2023-01-30T17:15:36.641Z,98587.88
2023-01-30T17:18:07.776Z,98599.38
2023-01-30T17:20:47.425Z,98606.56
2023-01-30T17:23:20.163Z,98614.45
2023-01-30T17:25:51.187Z,98621.61
2023-01-30T17:28:24.193Z,98626.92
2023-01-30T17:30:54.869Z,98623.14
2023-01-30T17:33:25.840Z,98631.01
2023-01-30T17:35:56.322Z,98635.44
2023-01-30T17:38:26.682Z,98644.84
2023-01-30T17:40:57.436Z,98650.48
2023-01-30T17:43:27.880Z,98655.25
2023-01-30T17:45:58.412Z,98668.08
2023-01-30T17:48:29.118Z,98672.61
2023-01-30T17:50:59.476Z,98695.58
2023-01-30T17:53:29.782Z,98694.89
2023-01-30T17:56:00.175Z,98703.95
2023-01-30T17:58:30.631Z,98714.16
2023-01-30T18:01:01.030Z,98719.89
2023-01-30T18:03:31.423Z,98719.95
2023-01-30T18:06:02.157Z,98722.25
2023-01-30T18:08:32.606Z,98721.81
2023-01-30T18:11:11.417Z,98728.17
2023-01-30T18:13:43.465Z,98725.45
2023-01-30T18:16:18.515Z,98734.45
2023-01-30T18:18:49.882Z,98736.00
2023-01-30T18:21:22.069Z,98742.20
2023-01-30T18:23:52.788Z,98747.86
2023-01-30T18:26:23.420Z,98748.58
2023-01-30T18:28:54.261Z,98754.59
2023-01-30T18:31:26.788Z,98755.27
2023-01-30T18:33:57.362Z,98750.27
2023-01-30T18:36:27.818Z,98751.29
2023-01-30T18:38:58.187Z,98754.52
2023-01-30T18:41:29.287Z,98763.27
2023-01-30T18:44:00.798Z,98765.66
2023-01-30T18:46:32.480Z,98768.61
2023-01-30T18:49:03.150Z,98763.30
2023-01-30T18:51:34.337Z,98761.72
2023-01-30T18:54:04.845Z,98762.33
2023-01-30T18:56:36.343Z,98755.93
2023-01-30T18:59:07.985Z,98774.77
2023-01-30T19:01:39.962Z,98776.79
2023-01-30T19:04:11.975Z,98784.17
2023-01-30T19:06:43.685Z,98790.70
2023-01-30T19:09:17.258Z,98800.48
2023-01-30T19:12:01.880Z,98805.09
2023-01-30T19:14:32.338Z,98810.40
2023-01-30T19:17:04.275Z,98818.58
2023-01-30T19:19:37.120Z,98817.95
2023-01-30T19:22:08.487Z,98825.31
2023-01-30T19:24:39.272Z,98834.85
2023-01-30T19:27:14.086Z,98840.16
2023-01-30T19:29:44.678Z,98832.48
2023-01-30T19:32:15.356Z,98827.54
2023-01-30T19:34:46.577Z,98828.47
2023-01-30T19:37:17.154Z,98838.69
2023-01-30T19:39:47.992Z,98837.81
2023-01-30T19:42:18.651Z,98844.52
2023-01-30T19:44:49.209Z,98846.94
2023-01-30T19:47:22.031Z,98851.80
2023-01-30T19:49:54.141Z,98852.92
2023-01-30T19:52:24.766Z,98857.29
2023-01-30T19:54:55.194Z,98861.48
2023-01-30T19:57:25.668Z,98864.50
2023-01-30T19:59:56.091Z,98874.01
2023-01-30T20:02:26.508Z,98876.64
2023-01-30T20:04:58.355Z,98885.05
2023-01-30T20:07:29.808Z,98885.92
2023-01-30T20:10:00.536Z,98887.27
2023-01-30T20:12:31.970Z,98888.30
2023-01-30T20:15:02.935Z,98887.91
2023-01-30T20:17:35.077Z,98893.55
2023-01-30T20:20:07.780Z,98898.54
2023-01-30T20:22:38.316Z,98907.27
2023-01-30T20:25:11.105Z,98907.27
2023-01-30T20:27:41.540Z,98912.52
2023-01-30T20:30:15.385Z,98915.21
2023-01-30T20:32:46.863Z,98915.19
2023-01-30T20:35:17.775Z,98917.55
2023-01-30T20:37:48.310Z,98916.32
2023-01-30T20:40:19.569Z,98913.75
2023-01-30T20:42:51.286Z,98916.58
2023-01-30T20:45:22.158Z,98921.50
2023-01-30T20:47:52.879Z,98923.27
2023-01-30T20:50:23.401Z,98923.66
2023-01-30T20:52:54.058Z,98927.47
2023-01-30T20:55:24.511Z,98936.19
2023-01-30T20:57:55.022Z,98930.83
2023-01-30T21:00:25.566Z,98931.09
2023-01-30T21:02:56.220Z,98927.58
2023-01-30T21:05:26.671Z,98933.02
2023-01-30T21:07:57.059Z,98935.95
2023-01-30T21:10:27.492Z,98934.61
2023-01-30T21:12:57.949Z,98935.97
2023-01-30T21:15:28.666Z,98938.32
2023-01-30T21:17:59.146Z,98948.02
2023-01-30T21:20:29.539Z,98950.04
2023-01-30T21:23:00.142Z,98955.15
2023-01-30T21:25:30.670Z,98958.67
2023-01-30T21:28:01.219Z,98966.48
2023-01-30T21:30:32.078Z,98971.52
2023-01-30T21:33:03.007Z,98982.20
2023-01-30T21:35:34.111Z,98983.91
2023-01-30T21:38:22.006Z,98986.60
2023-01-30T21:41:11.059Z,98995.73
2023-01-30T21:43:41.470Z,99002.70
2023-01-30T21:46:14.376Z,99008.80
2023-01-30T21:48:43.413Z,99005.52
2023-01-30T21:51:15.283Z,99007.73
2023-01-30T21:53:45.662Z,99007.36
2023-01-30T21:56:16.065Z,99006.27
2023-01-30T21:58:46.493Z,99005.14
2023-01-30T22:01:17.671Z,99006.95
2023-01-30T22:03:48.345Z,99007.55
2023-01-30T22:06:18.948Z,99004.40
2023-01-30T22:08:49.315Z,99005.52
2023-01-30T22:11:20.166Z,99004.74
2023-01-30T22:13:51.206Z,99009.90
2023-01-30T22:16:24.233Z,99017.89
2023-01-30T22:18:54.493Z,99022.39
2023-01-30T22:21:26.386Z,99035.95
2023-01-30T22:23:56.863Z,99038.34
2023-01-30T22:26:27.955Z,99044.23
2023-01-30T22:28:59.049Z,99041.56
2023-01-30T22:31:31.274Z,99042.73
2023-01-30T22:34:01.948Z,99046.14
2023-01-30T22:36:34.012Z,99045.58
2023-01-30T22:39:04.905Z,99040.89
2023-01-30T22:41:36.425Z,99038.66
2023-01-30T22:44:09.187Z,99038.52
2023-01-30T22:46:41.710Z,99047.83
2023-01-30T22:49:12.069Z,99044.00
2023-01-30T22:51:43.668Z,99047.95
2023-01-30T22:54:16.412Z,99044.52
2023-01-30T22:56:48.780Z,99043.16
2023-01-30T22:59:19.338Z,99049.00
2023-01-30T23:01:51.850Z,99044.89
2023-01-30T23:04:23.834Z,99047.84
2023-01-30T23:06:54.264Z,99049.98
2023-01-30T23:09:25.234Z,99051.37
2023-01-30T23:12:14.846Z,99057.91
2023-01-30T23:14:46.091Z,99058.04
2023-01-30T23:17:39.256Z,99055.35
2023-01-30T23:20:11.710Z,99056.21
2023-01-30T23:22:42.306Z,99053.00
2023-01-30T23:25:12.679Z,99052.98
2023-01-30T23:27:43.024Z,99047.83
2023-01-30T23:30:14.895Z,99050.06
2023-01-30T23:32:45.223Z,99056.64
2023-01-30T23:35:15.558Z,99054.51
2023-01-30T23:38:03.297Z,99050.45
2023-01-30T23:40:33.646Z,99052.36
2023-01-30T23:43:04.512Z,99056.98
2023-01-30T23:45:37.807Z,99057.84
2023-01-30T23:48:09.373Z,99059.08
2023-01-30T23:50:42.056Z,99060.04
2023-01-30T23:53:13.096Z,99059.56
2023-01-30T23:55:52.731Z,99060.76
2023-01-30T23:58:23.247Z,99065.83
